Time;durP1;ratioP1;P1;durP2;ratioP2;P2;SDS_P1;SDS_P2;PMS_P1;PMS_P2;Temp;Humidity;BMP_temperature;BMP_pressure;BME280_temperature;BME280_humidity;BME280_pressure;Samples;Min_cycle;Max_cycle;Signal;HPM_P1;HPM_P2
2024/03/30 00:01:02;;;;;;;1.30;1.20;;;16.20;77.30;;;;;;4970317;28;20035;-38
2024/03/30 00:03:28;;;;;;;1.55;1.40;;;16.20;77.30;;;;;;4980949;28;20058;-39
2024/03/30 00:06:01;;;;;;;1.40;1.30;;;16.10;77.20;;;;;;4960689;28;20067;-40
2024/03/30 00:08:27;;;;;;;1.50;1.40;;;16.10;77.20;;;;;;4981500;28;20038;-40
2024/03/30 00:11:01;;;;;;;1.40;1.23;;;16.10;77.30;;;;;;4983857;28;20031;-40
2024/03/30 00:13:28;;;;;;;1.45;1.35;;;16.10;77.20;;;;;;4984771;28;20119;-43
2024/03/30 00:15:54;;;;;;;1.52;1.40;;;16.00;77.30;;;;;;4978868;28;20023;-39
2024/03/30 00:18:20;;;;;;;1.30;1.15;;;16.10;77.30;;;;;;4978308;28;20030;-41
2024/03/30 00:20:45;;;;;;;1.33;1.23;;;16.00;77.30;;;;;;4980951;28;20031;-41
2024/03/30 00:23:11;;;;;;;1.52;1.38;;;16.00;78.00;;;;;;4974012;28;20023;-37
2024/03/30 00:25:37;;;;;;;1.33;1.23;;;16.00;77.30;;;;;;4981878;28;20085;-37
2024/03/30 00:28:03;;;;;;;1.83;1.40;;;16.00;77.50;;;;;;4979688;28;20022;-40
2024/03/30 00:30:36;;;;;;;1.25;1.13;;;15.90;77.40;;;;;;4978233;28;20031;-38
2024/03/30 00:33:02;;;;;;;1.00;1.00;;;15.90;77.40;;;;;;4984198;28;20034;-38
2024/03/30 00:35:28;;;;;;;1.45;1.20;;;15.90;77.40;;;;;;4984269;28;20029;-37
2024/03/30 00:37:54;;;;;;;1.30;1.20;;;15.90;77.40;;;;;;4978632;28;20022;-38
2024/03/30 00:40:21;;;;;;;1.30;1.20;;;15.90;77.40;;;;;;4979611;28;20079;-39
2024/03/30 00:42:47;;;;;;;2.67;1.27;;;15.80;77.40;;;;;;4983274;28;20042;-39
2024/03/30 00:45:13;;;;;;;1.48;1.13;;;15.80;77.50;;;;;;4973971;28;20066;-39
2024/03/30 00:47:39;;;;;;;1.30;1.20;;;15.80;77.50;;;;;;4973434;28;20416;-39
2024/03/30 00:50:06;;;;;;;1.38;1.27;;;15.80;77.50;;;;;;4974869;28;20507;-40
2024/03/30 00:52:32;;;;;;;1.27;1.17;;;15.80;77.50;;;;;;4974176;28;20043;-42
2024/03/30 00:54:57;;;;;;;1.48;1.30;;;15.80;77.50;;;;;;4973532;28;20039;-39
2024/03/30 00:57:23;;;;;;;1.20;1.10;;;15.70;77.50;;;;;;4955086;28;20059;-42
2024/03/30 00:59:50;;;;;;;1.38;1.10;;;15.80;77.60;;;;;;4980830;28;20022;-40
2024/03/30 01:02:16;;;;;;;1.98;1.30;;;15.70;77.60;;;;;;4980833;28;20023;-41
2024/03/30 01:04:41;;;;;;;1.00;1.00;;;15.70;77.60;;;;;;4985678;28;20031;-41
2024/03/30 01:07:07;;;;;;;1.73;1.25;;;15.70;77.60;;;;;;4967762;28;20034;-40
2024/03/30 01:09:33;;;;;;;1.30;1.20;;;15.70;77.60;;;;;;4975474;28;20027;-40
2024/03/30 01:11:59;;;;;;;1.17;1.10;;;15.70;77.60;;;;;;4978090;28;20043;-40
2024/03/30 01:14:27;;;;;;;1.73;1.10;;;15.70;77.60;;;;;;4970121;28;20119;-40
2024/03/30 01:16:53;;;;;;;1.05;1.05;;;15.60;77.60;;;;;;4951405;28;20542;-40
2024/03/30 01:19:19;;;;;;;1.20;1.10;;;15.60;77.60;;;;;;4979026;28;20117;-40
2024/03/30 01:21:45;;;;;;;1.42;1.20;;;15.60;77.60;;;;;;4973934;28;20090;-40
2024/03/30 01:24:11;;;;;;;1.17;1.10;;;15.60;77.60;;;;;;4976170;28;20066;-41
2024/03/30 01:26:43;;;;;;;1.67;1.10;;;15.60;77.70;;;;;;4976121;28;21738;-40
2024/03/30 01:29:09;;;;;;;2.33;1.27;;;15.50;77.70;;;;;;4975220;28;20050;-41
2024/03/30 01:31:35;;;;;;;1.20;1.10;;;15.50;77.70;;;;;;4975884;28;20475;-38
2024/03/30 01:34:02;;;;;;;1.40;1.27;;;15.50;77.70;;;;;;4970263;28;20023;-40
2024/03/30 01:36:28;;;;;;;1.00;1.00;;;15.50;77.70;;;;;;4979476;28;20118;-38
2024/03/30 01:38:54;;;;;;;1.90;1.23;;;15.50;77.80;;;;;;4966368;28;20027;-39
2024/03/30 01:41:19;;;;;;;1.27;1.17;;;15.50;77.70;;;;;;4977958;28;20030;-40
2024/03/30 01:43:46;;;;;;;1.40;1.30;;;15.40;77.70;;;;;;4973672;28;20554;-41
2024/03/30 01:46:12;;;;;;;1.33;1.10;;;15.40;77.70;;;;;;4967927;28;20067;-41
2024/03/30 01:48:38;;;;;;;1.40;1.30;;;15.40;77.80;;;;;;4969284;28;20042;-40
2024/03/30 01:51:04;;;;;;;1.50;1.27;;;15.40;77.70;;;;;;4977049;28;20030;-38
2024/03/30 01:53:30;;;;;;;2.60;1.25;;;15.40;77.70;;;;;;4970020;28;20031;-39
2024/03/30 01:55:56;;;;;;;1.40;1.25;;;15.40;77.70;;;;;;4978351;28;20023;-39
2024/03/30 01:58:26;;;;;;;1.30;1.20;;;15.30;77.90;;;;;;4961711;28;20039;-39
2024/03/30 02:00:54;;;;;;;1.80;1.23;;;15.30;77.70;;;;;;4976102;28;20027;-40
2024/03/30 02:03:23;;;;;;;1.40;1.30;;;15.30;77.70;;;;;;4976246;28;20018;-40
2024/03/30 02:05:49;;;;;;;1.35;1.25;;;15.30;77.70;;;;;;4980146;28;20443;-38
2024/03/30 02:08:16;;;;;;;1.42;1.10;;;15.30;77.70;;;;;;4955882;28;20478;-42
2024/03/30 02:10:42;;;;;;;1.40;1.30;;;15.20;77.70;;;;;;4975184;28;20046;-42
2024/03/30 02:13:08;;;;;;;1.40;1.30;;;15.20;77.70;;;;;;4974512;28;20058;-41
2024/03/30 02:15:33;;;;;;;1.27;1.17;;;15.20;77.70;;;;;;4971588;28;20030;-41
2024/03/30 02:17:59;;;;;;;2.28;1.50;;;15.20;77.70;;;;;;4956133;28;20898;-38
2024/03/30 02:20:25;;;;;;;1.50;1.20;;;15.20;78.40;;;;;;4976862;28;20476;-38
2024/03/30 02:22:52;;;;;;;1.30;1.20;;;15.10;77.70;;;;;;4971842;28;20045;-39
2024/03/30 02:25:19;;;;;;;2.28;1.40;;;15.10;77.80;;;;;;4981786;28;20047;-38
2024/03/30 02:27:46;;;;;;;1.60;1.50;;;15.20;77.80;;;;;;4979158;28;20112;-38
2024/03/30 02:30:26;;;;;;;1.60;1.50;;;15.10;77.70;;;;;;4975755;28;20118;-40
2024/03/30 02:32:54;;;;;;;1.60;1.50;;;15.10;77.80;;;;;;4963370;28;20102;-40
2024/03/30 02:35:20;;;;;;;1.60;1.50;;;15.10;77.80;;;;;;4957530;28;20045;-40
2024/03/30 02:37:46;;;;;;;2.00;1.70;;;15.10;77.80;;;;;;4979180;28;20023;-37
2024/03/30 02:40:12;;;;;;;2.00;1.60;;;15.10;77.70;;;;;;4967479;28;20442;-40
2024/03/30 02:42:38;;;;;;;1.45;1.30;;;15.10;77.80;;;;;;4968697;28;20091;-40
2024/03/30 02:45:06;;;;;;;1.63;1.50;;;15.10;77.80;;;;;;4974762;28;20074;-32
2024/03/30 02:47:31;;;;;;;1.92;1.70;;;15.10;77.80;;;;;;4965790;28;20031;-40
2024/03/30 02:49:57;;;;;;;1.80;1.60;;;15.00;77.70;;;;;;4970618;28;20033;-39
2024/03/30 02:52:23;;;;;;;1.65;1.55;;;15.00;77.80;;;;;;4964224;28;20028;-40
2024/03/30 02:54:48;;;;;;;1.77;1.60;;;15.00;77.80;;;;;;4931995;28;20118;-35
2024/03/30 02:57:17;;;;;;;2.00;1.80;;;15.00;77.80;;;;;;4977854;28;20035;-36
2024/03/30 02:59:43;;;;;;;1.92;1.75;;;15.00;77.80;;;;;;4975876;28;20027;-40
2024/03/30 03:02:10;;;;;;;2.67;1.85;;;15.00;78.50;;;;;;4983336;28;20081;-40
2024/03/30 03:04:35;;;;;;;1.70;1.60;;;15.00;77.80;;;;;;4975666;28;20031;-40
2024/03/30 03:07:02;;;;;;;2.17;1.80;;;14.90;77.80;;;;;;4973187;28;20035;-40
2024/03/30 03:09:28;;;;;;;1.90;1.80;;;14.90;77.80;;;;;;4964970;28;20190;-41
2024/03/30 03:11:54;;;;;;;1.75;1.60;;;15.00;77.90;;;;;;4977522;28;20526;-40
2024/03/30 03:14:20;;;;;;;1.90;1.70;;;14.90;77.80;;;;;;4977694;28;20121;-39
2024/03/30 03:16:46;;;;;;;2.30;1.83;;;14.90;77.90;;;;;;4978560;28;20027;-39
2024/03/30 03:19:12;;;;;;;2.28;1.80;;;14.90;77.90;;;;;;4973830;28;20027;-39
2024/03/30 03:21:38;;;;;;;1.95;1.77;;;14.90;77.80;;;;;;4959119;28;20053;-41
2024/03/30 03:24:04;;;;;;;1.77;1.67;;;14.90;77.90;;;;;;4976625;28;20038;-40
2024/03/30 03:26:30;;;;;;;2.22;1.95;;;14.90;78.00;;;;;;4977335;28;20030;-38
2024/03/30 03:28:55;;;;;;;2.10;1.90;;;14.90;78.00;;;;;;4977928;28;20030;-40
2024/03/30 03:31:21;;;;;;;2.40;1.88;;;14.80;77.90;;;;;;4974262;28;20113;-38
2024/03/30 03:33:47;;;;;;;2.15;1.95;;;14.80;77.90;;;;;;4959738;28;20046;-39
2024/03/30 03:36:12;;;;;;;3.38;2.20;;;14.80;77.90;;;;;;4973885;28;20054;-40
2024/03/30 03:38:38;;;;;;;2.50;2.30;;;14.80;78.00;;;;;;4975728;28;20061;-37
2024/03/30 03:41:04;;;;;;;2.53;2.00;;;14.80;77.90;;;;;;4964133;28;20030;-39
2024/03/30 03:43:30;;;;;;;2.47;2.28;;;14.80;77.90;;;;;;4973309;28;20027;-40
2024/03/30 03:45:58;;;;;;;2.28;2.00;;;14.80;77.90;;;;;;4975257;28;20573;-39
2024/03/30 03:48:24;;;;;;;2.33;2.10;;;14.80;77.90;;;;;;4976491;28;20038;-41
2024/03/30 03:50:50;;;;;;;2.83;2.35;;;14.80;77.90;;;;;;4966863;28;20035;-39
2024/03/30 03:53:16;;;;;;;2.63;2.20;;;14.80;77.90;;;;;;4977541;28;20026;-41
2024/03/30 03:55:45;;;;;;;2.97;2.50;;;14.80;77.90;;;;;;4969622;28;20141;-41
2024/03/30 03:58:10;;;;;;;2.90;2.60;;;14.80;78.00;;;;;;4976909;28;20014;-40
2024/03/30 04:00:36;;;;;;;3.00;2.30;;;14.80;78.00;;;;;;4973880;28;20407;-39
2024/03/30 04:03:02;;;;;;;2.50;2.30;;;14.70;78.00;;;;;;4970929;28;20054;-41
2024/03/30 04:05:28;;;;;;;2.97;2.40;;;14.70;78.00;;;;;;4978781;28;20039;-38
2024/03/30 04:07:54;;;;;;;2.75;2.47;;;14.70;78.00;;;;;;4978751;28;20332;-41
2024/03/30 04:10:20;;;;;;;2.53;2.30;;;14.70;78.00;;;;;;4975310;28;20129;-38
2024/03/30 04:12:48;;;;;;;2.83;2.53;;;14.70;78.00;;;;;;4973143;28;20122;-38
2024/03/30 04:15:13;;;;;;;3.40;2.75;;;14.70;78.70;;;;;;4974464;28;20054;-37
2024/03/30 04:17:40;;;;;;;3.70;2.60;;;14.60;78.00;;;;;;4973361;28;20058;-39
2024/03/30 04:20:06;;;;;;;2.75;2.42;;;14.70;78.00;;;;;;4973884;28;20051;-39
2024/03/30 04:22:32;;;;;;;2.90;2.50;;;14.60;78.00;;;;;;4973022;28;20019;-37
2024/03/30 04:24:58;;;;;;;3.47;2.67;;;14.60;78.00;;;;;;4977434;28;20075;-40
2024/03/30 04:27:24;;;;;;;3.15;2.53;;;14.70;78.10;;;;;;4978035;28;20097;-40
2024/03/30 04:29:50;;;;;;;3.65;2.92;;;14.60;78.00;;;;;;4955575;28;20039;-37
2024/03/30 04:32:15;;;;;;;2.97;2.60;;;14.60;78.10;;;;;;4966420;28;20023;-39
2024/03/30 04:34:41;;;;;;;3.00;2.70;;;14.60;78.10;;;;;;4983322;28;20042;-39
2024/03/30 04:37:07;;;;;;;3.15;2.55;;;14.60;78.10;;;;;;4971520;28;20094;-38
2024/03/30 04:39:33;;;;;;;3.15;2.60;;;14.60;78.20;;;;;;4972771;28;20039;-40
2024/03/30 04:41:59;;;;;;;3.75;2.90;;;14.60;78.20;;;;;;4977928;28;20023;-39
2024/03/30 04:44:25;;;;;;;3.00;2.58;;;14.60;78.20;;;;;;4976168;28;20054;-39
2024/03/30 04:46:51;;;;;;;2.83;2.53;;;14.50;78.20;;;;;;4971049;28;20070;-40
2024/03/30 04:49:17;;;;;;;3.40;2.90;;;14.60;78.90;;;;;;4967538;28;20031;-36
2024/03/30 04:51:43;;;;;;;3.20;2.78;;;14.50;78.20;;;;;;4978009;28;20438;-37
2024/03/30 04:54:09;;;;;;;3.30;2.83;;;14.50;78.20;;;;;;4977391;28;20031;-41
2024/03/30 04:56:34;;;;;;;3.38;2.92;;;14.50;78.10;;;;;;4981219;28;20635;-38
2024/03/30 04:59:00;;;;;;;3.70;2.90;;;14.50;78.10;;;;;;4977076;28;20122;-41
2024/03/30 05:01:26;;;;;;;4.30;2.85;;;14.50;78.20;;;;;;4976974;28;20530;-40
2024/03/30 05:03:52;;;;;;;3.25;2.88;;;14.50;78.20;;;;;;4976880;28;20041;-40
2024/03/30 05:06:18;;;;;;;4.32;3.17;;;14.50;78.20;;;;;;4981897;28;20042;-38
2024/03/30 05:08:44;;;;;;;3.53;2.75;;;14.50;78.20;;;;;;4975339;28;20031;-37
2024/03/30 05:11:09;;;;;;;4.20;2.97;;;14.50;78.20;;;;;;4975910;28;20045;-38
2024/03/30 05:13:36;;;;;;;3.22;2.85;;;14.50;78.20;;;;;;4979495;28;20051;-38
2024/03/30 05:16:02;;;;;;;4.15;3.22;;;14.40;78.20;;;;;;4979556;28;20046;-36
2024/03/30 05:18:28;;;;;;;3.40;2.83;;;14.50;78.30;;;;;;4979376;28;20034;-39
2024/03/30 05:20:57;;;;;;;3.45;2.92;;;14.50;78.30;;;;;;4978261;28;20022;-35
2024/03/30 05:23:26;;;;;;;3.90;3.28;;;14.40;78.20;;;;;;4976053;28;20081;-38
2024/03/30 05:25:53;;;;;;;3.28;2.80;;;14.40;78.30;;;;;;4969131;28;20039;-36
2024/03/30 05:28:21;;;;;;;4.10;3.40;;;14.50;78.30;;;;;;4971498;28;20031;-36
2024/03/30 05:30:48;;;;;;;4.10;3.25;;;14.40;78.20;;;;;;4972911;28;20035;-37
2024/03/30 05:33:14;;;;;;;3.80;3.05;;;14.40;78.30;;;;;;4970963;28;20034;-36
2024/03/30 05:35:40;;;;;;;3.92;3.13;;;14.40;78.30;;;;;;4983348;28;20042;-37
2024/03/30 05:38:06;;;;;;;4.00;3.28;;;14.40;78.30;;;;;;4968162;28;20488;-37
2024/03/30 05:40:32;;;;;;;4.05;3.35;;;14.40;78.30;;;;;;4981268;28;20058;-38
2024/03/30 05:43:07;;;;;;;4.15;3.50;;;14.40;78.30;;;;;;4979190;28;20050;-36
2024/03/30 05:45:34;;;;;;;4.10;3.38;;;14.40;78.40;;;;;;4976200;28;20070;-39
2024/03/30 05:48:00;;;;;;;4.00;3.30;;;14.40;78.50;;;;;;4977013;28;20023;-37
2024/03/30 05:50:27;;;;;;;4.75;3.72;;;14.30;78.40;;;;;;4971683;28;20110;-37
2024/03/30 05:52:53;;;;;;;4.50;3.72;;;14.30;78.40;;;;;;4978380;28;20065;-35
2024/03/30 05:55:19;;;;;;;4.45;3.70;;;14.30;78.40;;;;;;4980064;28;20019;-34
2024/03/30 05:57:46;;;;;;;5.32;3.72;;;14.30;79.00;;;;;;4972868;28;20058;-38
2024/03/30 06:00:13;;;;;;;5.00;3.80;;;14.30;78.50;;;;;;4968938;28;20030;-36
2024/03/30 06:02:41;;;;;;;4.53;3.45;;;14.30;78.50;;;;;;4972642;28;20043;-39
2024/03/30 06:05:07;;;;;;;4.90;3.90;;;14.30;78.40;;;;;;4980239;28;20031;-33
2024/03/30 06:07:34;;;;;;;4.05;3.45;;;14.30;78.40;;;;;;4976244;28;20054;-37
2024/03/30 06:10:00;;;;;;;4.80;3.88;;;14.30;78.50;;;;;;4969097;28;20078;-36
2024/03/30 06:12:26;;;;;;;4.63;3.88;;;14.20;78.50;;;;;;4976647;28;20047;-37
2024/03/30 06:14:52;;;;;;;4.65;4.15;;;14.20;79.10;;;;;;4971978;28;20094;-38
2024/03/30 06:17:18;;;;;;;4.35;3.70;;;14.20;78.50;;;;;;4972767;28;20074;-39
2024/03/30 06:19:44;;;;;;;5.43;4.10;;;14.20;78.40;;;;;;4974135;28;20503;-38
2024/03/30 06:22:10;;;;;;;4.13;3.58;;;14.20;78.50;;;;;;4975087;28;20035;-34
2024/03/30 06:24:37;;;;;;;5.15;3.88;;;14.20;78.60;;;;;;4972464;28;20058;-37
2024/03/30 06:27:09;;;;;;;4.45;3.58;;;14.20;78.50;;;;;;4965774;28;20082;-39
2024/03/30 06:29:37;;;;;;;4.22;3.75;;;14.30;78.50;;;;;;4973690;28;20046;-39
2024/03/30 06:32:04;;;;;;;4.68;3.78;;;14.30;78.60;;;;;;4968605;28;20023;-36
2024/03/30 06:34:31;;;;;;;4.70;4.00;;;14.20;78.50;;;;;;4974060;28;20034;-36
2024/03/30 06:36:57;;;;;;;4.55;3.80;;;14.20;78.50;;;;;;4963969;28;20090;-36
2024/03/30 06:39:22;;;;;;;4.75;3.65;;;14.20;78.50;;;;;;4971619;28;20074;-36
2024/03/30 06:44:33;;;;;;;4.60;3.53;;;14.30;78.60;;;;;;4968880;28;20073;-33
2024/03/30 06:46:59;;;;;;;4.10;3.25;;;14.20;78.50;;;;;;4967960;28;20114;-35
2024/03/30 06:49:24;;;;;;;4.25;3.45;;;14.20;78.50;;;;;;4979201;28;20107;-35
2024/03/30 06:51:50;;;;;;;4.50;3.50;;;14.20;78.50;;;;;;4968812;28;20022;-36
2024/03/30 06:54:16;;;;;;;4.43;3.63;;;14.20;78.50;;;;;;4964046;28;20031;-37
2024/03/30 06:56:42;;;;;;;4.93;3.70;;;14.20;78.50;;;;;;4970477;28;20015;-38
2024/03/30 06:59:08;;;;;;;4.75;3.60;;;14.20;78.50;;;;;;4961954;28;20058;-35
2024/03/30 07:01:34;;;;;;;4.57;3.63;;;14.20;78.60;;;;;;4973401;28;20030;-36
2024/03/30 07:04:01;;;;;;;4.80;3.55;;;14.20;78.60;;;;;;4988075;28;20042;-33
2024/03/30 07:06:28;;;;;;;4.60;3.85;;;14.20;78.60;;;;;;4979498;28;20042;-38
2024/03/30 07:08:57;;;;;;;4.60;3.75;;;14.20;78.60;;;;;;4971130;28;20030;-37
2024/03/30 07:11:23;;;;;;;4.70;3.60;;;14.20;78.60;;;;;;4988013;28;20031;-38
2024/03/30 07:13:49;;;;;;;4.72;3.75;;;14.20;79.20;;;;;;4971756;28;20023;-36
2024/03/30 07:16:15;;;;;;;4.75;3.55;;;14.20;78.60;;;;;;4964913;28;20485;-35
2024/03/30 07:18:43;;;;;;;4.20;3.60;;;14.20;78.60;;;;;;4969109;28;20094;-35
2024/03/30 07:21:08;;;;;;;5.15;4.05;;;14.20;78.60;;;;;;4970862;28;20030;-37
2024/03/30 07:23:34;;;;;;;5.20;4.25;;;14.20;78.60;;;;;;4977962;28;20027;-39
2024/03/30 07:26:04;;;;;;;5.72;4.25;;;14.20;78.60;;;;;;4982084;28;20030;-39
2024/03/30 07:28:30;;;;;;;5.18;4.20;;;14.20;78.60;;;;;;4993841;28;20030;-37
2024/03/30 07:31:00;;;;;;;5.55;4.15;;;14.20;78.60;;;;;;4993359;28;20069;-38
2024/03/30 07:33:26;;;;;;;5.55;4.43;;;14.20;78.60;;;;;;4973553;28;20110;-35
2024/03/30 07:35:54;;;;;;;6.00;4.43;;;14.20;78.60;;;;;;4972003;28;20094;-36
2024/03/30 07:38:23;;;;;;;5.85;4.60;;;14.20;78.60;;;;;;4973747;28;20031;-36
2024/03/30 07:40:49;;;;;;;5.43;4.25;;;14.20;78.60;;;;;;4978236;28;20058;-37
2024/03/30 07:43:15;;;;;;;5.70;4.45;;;14.20;78.60;;;;;;4967472;28;20030;-34
2024/03/30 07:45:40;;;;;;;5.97;4.47;;;14.20;78.60;;;;;;4961934;28;20043;-35
2024/03/30 07:48:06;;;;;;;6.18;4.93;;;14.20;78.60;;;;;;4956975;28;20031;-38
2024/03/30 07:50:32;;;;;;;5.50;4.28;;;14.20;79.30;;;;;;4963476;28;20034;-37
2024/03/30 07:52:57;;;;;;;6.25;5.30;;;14.30;78.70;;;;;;4970258;28;20027;-34
2024/03/30 07:55:23;;;;;;;6.25;5.00;;;14.20;78.60;;;;;;4981410;28;20054;-34
2024/03/30 07:57:49;;;;;;;5.72;4.72;;;14.20;78.60;;;;;;4980181;28;20035;-37
2024/03/30 08:00:15;;;;;;;5.85;4.90;;;14.30;78.70;;;;;;4983555;28;20035;-38
2024/03/30 08:02:40;;;;;;;5.90;4.95;;;14.20;78.60;;;;;;4986854;28;20026;-38
2024/03/30 08:05:06;;;;;;;7.07;5.38;;;14.30;78.70;;;;;;4989535;28;20632;-39
2024/03/30 08:07:32;;;;;;;6.10;5.15;;;14.30;78.70;;;;;;4988065;28;20023;-36
2024/03/30 08:09:58;;;;;;;6.28;5.32;;;14.20;78.60;;;;;;4981655;28;20046;-36
2024/03/30 08:12:24;;;;;;;5.65;4.65;;;14.30;78.70;;;;;;4969437;28;20041;-37
2024/03/30 08:14:50;;;;;;;6.65;5.32;;;14.30;78.70;;;;;;4982314;28;20034;-39
2024/03/30 08:17:16;;;;;;;5.60;4.75;;;14.30;78.60;;;;;;4981306;28;20030;-39
2024/03/30 08:19:41;;;;;;;6.13;5.30;;;14.30;78.60;;;;;;4976469;28;20124;-34
2024/03/30 08:22:07;;;;;;;5.80;4.45;;;14.30;78.60;;;;;;4965794;28;20407;-39
2024/03/30 08:24:33;;;;;;;7.35;5.22;;;14.30;78.60;;;;;;4971119;28;20042;-35
2024/03/30 08:26:58;;;;;;;6.25;5.13;;;14.30;78.60;;;;;;4970935;28;20504;-38
2024/03/30 08:29:24;;;;;;;5.57;4.63;;;14.30;78.60;;;;;;4976281;28;20045;-38
2024/03/30 08:31:50;;;;;;;5.72;4.82;;;14.30;78.60;;;;;;4981334;28;20023;-39
2024/03/30 08:34:16;;;;;;;6.68;5.15;;;14.30;78.60;;;;;;4980281;28;20058;-37
2024/03/30 08:36:41;;;;;;;6.05;4.85;;;14.40;78.70;;;;;;4976854;28;20030;-37
2024/03/30 08:39:07;;;;;;;6.32;5.10;;;14.30;78.60;;;;;;4969699;28;20023;-34
2024/03/30 08:41:33;;;;;;;5.78;5.00;;;14.40;78.70;;;;;;4976817;28;20499;-35
2024/03/30 08:44:02;;;;;;;6.10;4.97;;;14.40;78.60;;;;;;4967666;28;20126;-34
2024/03/30 08:46:29;;;;;;;5.75;5.03;;;14.40;78.60;;;;;;4979171;28;20048;-38
2024/03/30 08:49:05;;;;;;;6.35;5.20;;;14.40;78.60;;;;;;4974209;28;20019;-33
2024/03/30 08:51:32;;;;;;;5.57;4.93;;;14.40;78.60;;;;;;4973373;28;20045;-39
2024/03/30 08:54:05;;;;;;;5.85;4.75;;;14.40;78.60;;;;;;4985250;28;20019;-36
2024/03/30 08:56:32;;;;;;;5.10;4.40;;;14.50;78.60;;;;;;4984352;28;20522;-38
2024/03/30 08:58:58;;;;;;;5.60;4.60;;;14.50;78.60;;;;;;4980848;28;20047;-37
2024/03/30 09:01:24;;;;;;;5.32;4.35;;;14.50;78.50;;;;;;4966197;28;20028;-36
2024/03/30 09:03:50;;;;;;;6.20;5.25;;;14.50;78.50;;;;;;4971453;28;20039;-36
2024/03/30 09:06:16;;;;;;;5.90;4.93;;;14.60;78.50;;;;;;4982859;28;20070;-36
2024/03/30 09:08:42;;;;;;;6.00;4.97;;;14.60;78.50;;;;;;4977556;28;20027;-36
2024/03/30 09:11:09;;;;;;;6.05;5.13;;;14.60;78.50;;;;;;4973687;28;20027;-38
2024/03/30 09:13:35;;;;;;;6.20;4.70;;;14.60;78.50;;;;;;4982114;28;20117;-38
2024/03/30 09:16:01;;;;;;;6.78;4.97;;;14.60;78.50;;;;;;4979845;28;20034;-38
2024/03/30 09:18:27;;;;;;;6.40;4.80;;;14.70;78.50;;;;;;4973277;28;20023;-38
2024/03/30 09:20:53;;;;;;;5.97;4.72;;;14.70;78.40;;;;;;4977670;28;20083;-37
2024/03/30 09:23:18;;;;;;;5.97;4.85;;;14.70;78.40;;;;;;4968509;28;20035;-38
2024/03/30 09:25:44;;;;;;;5.78;4.60;;;14.80;78.40;;;;;;4984945;28;20042;-35
2024/03/30 09:28:10;;;;;;;6.28;4.78;;;14.80;78.30;;;;;;4969673;28;20035;-34
2024/03/30 09:30:35;;;;;;;6.40;4.43;;;14.80;78.30;;;;;;4982016;28;20043;-34
2024/03/30 09:33:01;;;;;;;4.97;4.30;;;14.80;78.90;;;;;;4979448;28;20295;-37
2024/03/30 09:35:27;;;;;;;5.80;4.70;;;14.90;78.30;;;;;;4982595;28;20034;-33
2024/03/30 09:37:53;;;;;;;6.00;4.72;;;14.90;78.30;;;;;;4981916;28;20018;-37
2024/03/30 09:40:19;;;;;;;5.28;4.32;;;14.90;78.20;;;;;;4970035;28;20076;-34
2024/03/30 09:42:46;;;;;;;5.47;4.70;;;14.90;78.20;;;;;;4978246;28;20015;-36
2024/03/30 09:45:12;;;;;;;5.90;4.47;;;15.00;78.30;;;;;;4960495;28;20027;-37
2024/03/30 09:47:42;;;;;;;5.68;4.55;;;15.00;78.30;;;;;;4981499;28;20400;-34
2024/03/30 09:50:12;;;;;;;5.85;4.53;;;15.00;78.20;;;;;;4976526;28;20031;-36
2024/03/30 09:52:39;;;;;;;5.57;4.43;;;15.00;78.20;;;;;;4971373;28;20391;-35
2024/03/30 09:55:15;;;;;;;5.45;4.05;;;15.10;78.20;;;;;;4982876;28;20027;-37
2024/03/30 09:57:50;;;;;;;5.30;4.30;;;15.10;78.20;;;;;;4969245;28;20043;-35
2024/03/30 10:00:18;;;;;;;5.38;4.50;;;15.10;78.30;;;;;;4974977;28;20035;-37
2024/03/30 10:02:44;;;;;;;5.15;3.75;;;15.10;78.20;;;;;;4973909;28;20063;-33
2024/03/30 10:05:11;;;;;;;5.15;4.35;;;15.20;78.20;;;;;;4975195;28;20042;-38
2024/03/30 10:07:41;;;;;;;5.95;4.20;;;15.20;78.20;;;;;;4967688;28;20046;-36
2024/03/30 10:10:12;;;;;;;5.63;4.10;;;15.20;78.10;;;;;;4972758;28;20111;-37
2024/03/30 10:12:49;;;;;;;6.47;4.22;;;15.30;78.20;;;;;;4978576;28;20078;-33
2024/03/30 10:15:21;;;;;;;5.78;4.15;;;15.30;78.20;;;;;;4975395;28;20427;-36
2024/03/30 10:17:46;;;;;;;5.38;4.28;;;15.30;78.10;;;;;;4980834;28;20568;-36
2024/03/30 10:20:12;;;;;;;5.15;3.85;;;15.40;78.20;;;;;;4962555;28;20030;-33
2024/03/30 10:22:39;;;;;;;5.40;3.92;;;15.40;78.10;;;;;;4978348;28;20038;-39
2024/03/30 10:25:05;;;;;;;6.03;4.20;;;15.40;78.10;;;;;;4975488;28;20057;-37
2024/03/30 10:27:31;;;;;;;6.65;3.70;;;15.40;78.00;;;;;;4980364;28;20038;-39
2024/03/30 10:29:57;;;;;;;5.95;3.95;;;15.40;78.00;;;;;;4971287;28;20054;-38
2024/03/30 10:32:24;;;;;;;5.95;4.13;;;15.50;78.70;;;;;;4966390;28;20015;-37
2024/03/30 10:34:52;;;;;;;6.45;3.88;;;15.50;78.00;;;;;;4977727;28;20483;-38
2024/03/30 10:37:17;;;;;;;6.07;3.97;;;15.60;78.00;;;;;;4972191;28;20027;-37
2024/03/30 10:39:45;;;;;;;6.10;4.13;;;15.60;77.90;;;;;;4968166;28;20041;-39
2024/03/30 10:42:12;;;;;;;4.35;3.28;;;15.60;77.90;;;;;;4976234;28;20056;-38
2024/03/30 10:44:38;;;;;;;6.32;3.90;;;15.70;77.90;;;;;;4980412;28;20031;-33
2024/03/30 10:47:04;;;;;;;5.38;3.58;;;15.70;77.90;;;;;;4964626;28;20034;-34
2024/03/30 10:49:30;;;;;;;4.95;3.70;;;15.70;77.90;;;;;;4972625;28;20033;-34
2024/03/30 10:51:57;;;;;;;5.70;3.58;;;15.70;77.80;;;;;;4972407;28;20114;-36
2024/03/30 10:54:23;;;;;;;5.90;3.40;;;15.80;77.90;;;;;;4972346;28;20550;-34
2024/03/30 10:56:52;;;;;;;6.13;3.78;;;15.80;77.80;;;;;;4979899;28;20038;-37
2024/03/30 10:59:19;;;;;;;6.15;3.65;;;15.90;77.90;;;;;;4980284;28;20050;-33
2024/03/30 11:01:48;;;;;;;5.03;3.38;;;15.90;77.90;;;;;;4978118;28;20031;-36
2024/03/30 11:04:16;;;;;;;5.13;3.30;;;15.90;77.80;;;;;;4972241;28;20030;-38
2024/03/30 11:06:46;;;;;;;6.15;3.75;;;16.00;77.90;;;;;;4974560;28;20035;-36
2024/03/30 11:09:22;;;;;;;5.85;3.45;;;16.00;77.90;;;;;;4976855;28;20357;-34
2024/03/30 11:11:49;;;;;;;6.28;3.35;;;16.00;77.90;;;;;;4980745;28;20039;-35
2024/03/30 11:14:14;;;;;;;4.32;3.20;;;16.00;77.90;;;;;;4966010;28;20023;-37
2024/03/30 11:16:47;;;;;;;6.65;3.28;;;16.10;77.90;;;;;;4965977;28;20046;-38
2024/03/30 11:19:23;;;;;;;6.70;3.70;;;16.10;77.90;;;;;;4961467;28;20035;-38
2024/03/30 11:22:16;;;;;;;5.25;3.10;;;16.20;77.90;;;;;;4970542;28;20050;-38
2024/03/30 11:24:58;;;;;;;5.57;3.05;;;16.20;77.90;;;;;;4973536;28;20455;-35
2024/03/30 11:27:30;;;;;;;5.88;3.35;;;16.20;77.90;;;;;;4965566;28;20089;-33
2024/03/30 11:30:07;;;;;;;5.05;2.90;;;16.20;77.90;;;;;;4972610;28;20057;-38
2024/03/30 11:32:38;;;;;;;4.97;2.83;;;16.30;77.90;;;;;;4970347;28;20050;-35
2024/03/30 11:35:09;;;;;;;5.95;2.90;;;16.30;77.80;;;;;;4977556;28;20045;-37
2024/03/30 11:37:41;;;;;;;6.13;3.00;;;16.30;77.80;;;;;;4973340;28;20034;-36
2024/03/30 11:40:25;;;;;;;4.95;3.17;;;16.40;77.90;;;;;;4967333;28;20031;-35
2024/03/30 11:42:56;;;;;;;5.30;2.80;;;16.40;77.90;;;;;;4959475;28;20035;-37
2024/03/30 11:45:28;;;;;;;6.75;2.90;;;16.40;77.90;;;;;;4968204;28;20442;-36
2024/03/30 11:47:55;;;;;;;4.68;2.78;;;16.40;77.90;;;;;;4971681;28;20395;-37
2024/03/30 11:50:21;;;;;;;6.55;2.90;;;16.50;77.90;;;;;;4962932;28;20136;-37
2024/03/30 11:52:48;;;;;;;6.60;2.97;;;16.50;77.80;;;;;;4970569;28;20042;-39
2024/03/30 11:55:26;;;;;;;5.00;2.60;;;16.60;77.80;;;;;;4980201;28;20034;-38
2024/03/30 11:57:53;;;;;;;5.15;2.90;;;16.60;77.80;;;;;;4976449;28;20539;-38
2024/03/30 12:00:20;;;;;;;6.05;2.60;;;16.60;77.70;;;;;;4955641;28;20054;-38
2024/03/30 12:02:49;;;;;;;7.45;3.17;;;16.70;77.70;;;;;;4976096;28;20062;-35
2024/03/30 12:05:19;;;;;;;4.80;2.38;;;16.70;77.70;;;;;;4977831;28;20047;-37
2024/03/30 12:07:45;;;;;;;5.22;2.83;;;16.80;77.80;;;;;;4967198;28;20035;-35
2024/03/30 12:10:14;;;;;;;6.28;2.85;;;16.80;77.70;;;;;;4972514;28;20090;-37
2024/03/30 12:12:40;;;;;;;9.30;3.28;;;16.80;77.70;;;;;;4972075;28;20038;-37
2024/03/30 12:15:13;;;;;;;6.57;2.83;;;16.80;77.70;;;;;;4976839;28;20053;-34
2024/03/30 12:17:40;;;;;;;6.88;2.90;;;16.90;77.80;;;;;;4979163;28;20038;-36
2024/03/30 12:20:09;;;;;;;7.45;2.90;;;16.90;77.70;;;;;;4978967;28;20054;-33
2024/03/30 12:22:34;;;;;;;7.78;2.92;;;16.90;77.80;;;;;;4968424;28;20055;-37
2024/03/30 12:25:00;;;;;;;12.25;3.22;;;17.00;77.80;;;;;;4972933;28;20030;-34
2024/03/30 12:27:29;;;;;;;10.02;3.42;;;17.00;77.80;;;;;;4980426;28;20034;-37
2024/03/30 12:29:55;;;;;;;13.52;3.72;;;17.00;77.80;;;;;;4987773;28;20023;-33
2024/03/30 12:32:21;;;;;;;14.50;3.55;;;17.10;77.80;;;;;;4968240;28;20027;-35
2024/03/30 12:34:47;;;;;;;10.55;3.10;;;17.10;77.80;;;;;;4977285;28;20061;-37
2024/03/30 12:37:15;;;;;;;7.97;3.45;;;17.10;77.70;;;;;;4984196;28;20035;-35
2024/03/30 12:39:40;;;;;;;9.02;3.50;;;17.20;77.60;;;;;;4968793;28;20487;-38
2024/03/30 12:42:07;;;;;;;9.82;3.05;;;17.20;78.20;;;;;;4979321;28;20023;-34
2024/03/30 12:44:33;;;;;;;11.43;3.13;;;17.30;77.50;;;;;;4973065;28;20098;-35
2024/03/30 12:47:00;;;;;;;8.48;2.85;;;17.30;77.50;;;;;;4975491;28;20058;-35